createdAt,value
2022-08-20T00:00:14.575Z,12.30
2022-08-20T00:02:46.598Z,14.38
2022-08-20T00:05:15.029Z,13.05
2022-08-20T00:07:42.553Z,13.00
2022-08-20T00:10:10.426Z,12.75
2022-08-20T00:12:42.981Z,13.15
2022-08-20T00:15:11.201Z,13.30
2022-08-20T00:17:38.929Z,12.32
2022-08-20T00:20:11.684Z,11.65
2022-08-20T00:22:39.334Z,11.45
2022-08-20T00:25:09.218Z,11.15
2022-08-20T00:27:36.746Z,11.73
2022-08-20T00:30:06.351Z,12.15
2022-08-20T00:32:43.064Z,11.00
2022-08-20T00:35:13.122Z,10.80
2022-08-20T00:37:40.649Z,10.73
2022-08-20T00:40:22.729Z,10.90
2022-08-20T00:42:54.473Z,10.15
2022-08-20T00:45:21.984Z,12.35
2022-08-20T00:47:51.432Z,11.30
2022-08-20T00:52:54.636Z,11.30
2022-08-20T00:55:27.466Z,12.93
2022-08-20T00:58:02.124Z,11.23
2022-08-20T01:00:33.623Z,14.35
2022-08-20T01:03:01.375Z,13.23
2022-08-20T01:05:30.468Z,14.23
2022-08-20T01:07:58.559Z,13.43
2022-08-20T01:10:29.600Z,14.93
2022-08-20T01:12:59.896Z,12.93
2022-08-20T01:15:31.130Z,11.70
2022-08-20T01:18:01.149Z,9.70
2022-08-20T01:23:08.062Z,14.05
2022-08-20T01:25:47.721Z,12.55
2022-08-20T01:30:44.284Z,11.65
2022-08-20T01:33:12.114Z,10.57
2022-08-20T01:35:41.785Z,12.02
2022-08-20T01:40:52.041Z,11.25
2022-08-20T01:43:19.822Z,10.85
2022-08-20T01:45:49.614Z,11.48
2022-08-20T01:48:18.800Z,13.32
2022-08-20T01:50:56.259Z,11.82
2022-08-20T01:53:30.384Z,12.70
2022-08-20T01:55:59.377Z,12.40
2022-08-20T01:58:26.899Z,11.48
2022-08-20T02:00:54.854Z,9.73
2022-08-20T02:03:22.349Z,12.60
2022-08-20T02:05:49.815Z,12.70
2022-08-20T02:08:17.249Z,9.70
2022-08-20T02:10:44.646Z,11.60
2022-08-20T02:13:13.749Z,11.38
2022-08-20T02:15:43.002Z,12.35
2022-08-20T02:18:14.000Z,11.98
2022-08-20T02:20:42.998Z,10.77
2022-08-20T02:23:11.750Z,11.63
2022-08-20T02:25:41.684Z,10.52
2022-08-20T02:28:17.669Z,9.43
2022-08-20T02:30:48.507Z,12.80
2022-08-20T02:33:19.071Z,10.07
2022-08-20T02:35:48.891Z,10.68
2022-08-20T02:38:16.553Z,9.30
2022-08-20T02:40:45.529Z,9.88
2022-08-20T02:43:13.170Z,11.50
2022-08-20T02:45:42.101Z,9.77
2022-08-20T02:48:10.521Z,9.20
2022-08-20T02:50:37.921Z,9.52
2022-08-20T02:53:05.397Z,10.23
2022-08-20T02:55:32.837Z,8.63
2022-08-20T02:58:00.753Z,7.35
2022-08-20T03:00:37.795Z,9.25
2022-08-20T03:03:08.711Z,9.63
2022-08-20T03:05:38.130Z,8.35
2022-08-20T03:08:08.453Z,8.18
2022-08-20T03:10:37.873Z,9.05
2022-08-20T03:13:06.737Z,10.15
2022-08-20T03:15:34.792Z,10.03
2022-08-20T03:18:02.210Z,10.55
2022-08-20T03:20:31.135Z,10.98
2022-08-20T03:22:59.792Z,9.77
2022-08-20T03:25:27.290Z,8.77
2022-08-20T03:27:55.386Z,10.18
2022-08-20T03:30:24.940Z,9.43
2022-08-20T03:32:53.035Z,8.77
2022-08-20T03:35:22.396Z,10.07
2022-08-20T03:37:51.358Z,10.93
2022-08-20T03:42:50.901Z,10.68
2022-08-20T03:45:20.604Z,8.73
2022-08-20T03:47:49.661Z,9.82
2022-08-20T03:50:23.059Z,8.27
2022-08-20T03:52:53.286Z,8.70
2022-08-20T03:57:51.402Z,10.32
2022-08-20T04:00:22.490Z,10.63
2022-08-20T04:02:49.914Z,8.65
2022-08-20T04:05:17.458Z,9.18
2022-08-20T04:07:45.136Z,9.00
2022-08-20T04:10:14.115Z,12.27
2022-08-20T04:12:41.989Z,10.43
2022-08-20T04:15:19.527Z,12.48
2022-08-20T04:17:49.101Z,11.95
2022-08-20T04:20:19.342Z,11.10
2022-08-20T04:22:58.575Z,9.27
2022-08-20T04:25:27.943Z,10.32
2022-08-20T04:27:57.692Z,10.30
2022-08-20T04:30:25.512Z,12.80
2022-08-20T04:32:53.150Z,9.52
2022-08-20T04:35:22.061Z,11.57
2022-08-20T04:37:49.516Z,10.35
2022-08-20T04:40:19.303Z,10.20
2022-08-20T04:45:20.833Z,11.15
2022-08-20T04:47:48.338Z,11.38
2022-08-20T04:50:17.101Z,9.68
2022-08-20T04:52:46.515Z,8.50
2022-08-20T04:55:13.992Z,10.68
2022-08-20T04:57:41.424Z,11.75
2022-08-20T05:00:13.974Z,11.93
2022-08-20T05:02:41.460Z,9.88
2022-08-20T05:05:09.533Z,10.82
2022-08-20T05:07:40.151Z,15.57
2022-08-20T05:10:08.946Z,14.63
2022-08-20T05:12:36.865Z,10.93
2022-08-20T05:15:05.040Z,12.73
2022-08-20T05:17:33.905Z,12.95
2022-08-20T05:20:01.340Z,11.87
2022-08-20T05:22:31.069Z,12.13
2022-08-20T05:24:58.598Z,13.60
2022-08-20T05:27:26.076Z,12.43
2022-08-20T05:29:54.365Z,15.55
2022-08-20T05:32:21.850Z,13.88
2022-08-20T05:34:50.722Z,14.52
2022-08-20T05:37:18.172Z,13.07
2022-08-20T05:39:45.870Z,14.93
2022-08-20T05:42:13.438Z,12.93
2022-08-20T05:44:40.858Z,13.27
2022-08-20T05:47:10.092Z,12.60
2022-08-20T05:49:38.486Z,15.80
2022-08-20T05:52:07.509Z,13.65
2022-08-20T05:54:34.916Z,11.80
2022-08-20T05:57:02.333Z,12.32
2022-08-20T05:59:29.886Z,10.30
2022-08-20T06:01:57.323Z,12.52
2022-08-20T06:04:24.718Z,13.50
2022-08-20T06:06:53.579Z,12.57
2022-08-20T06:09:30.595Z,12.30
2022-08-20T06:11:59.407Z,10.40
2022-08-20T06:14:27.045Z,13.85
2022-08-20T06:16:57.850Z,13.27
2022-08-20T06:19:27.132Z,12.90
2022-08-20T06:22:00.078Z,13.73
2022-08-20T06:24:29.013Z,14.05
2022-08-20T06:26:56.934Z,12.27
2022-08-20T06:29:24.372Z,12.82
2022-08-20T06:31:51.829Z,14.45
2022-08-20T06:34:19.270Z,11.82
2022-08-20T06:36:46.874Z,14.68
2022-08-20T06:39:15.108Z,16.13
2022-08-20T06:41:43.981Z,18.25
2022-08-20T06:44:11.434Z,15.87
2022-08-20T06:46:38.890Z,10.43
2022-08-20T06:49:07.714Z,16.55
2022-08-20T06:51:35.354Z,13.97
2022-08-20T06:54:02.902Z,15.18
2022-08-20T06:56:30.389Z,12.80
2022-08-20T06:58:59.660Z,14.27
2022-08-20T07:01:27.179Z,13.75
2022-08-20T07:03:56.208Z,12.40
2022-08-20T07:06:23.979Z,13.95
2022-08-20T07:08:51.376Z,16.08
2022-08-20T07:11:18.826Z,14.30
2022-08-20T07:13:46.262Z,13.30
2022-08-20T07:16:15.428Z,16.38
2022-08-20T07:18:43.065Z,17.60
2022-08-20T07:21:10.633Z,18.10
2022-08-20T07:23:38.385Z,16.80
2022-08-20T07:26:06.044Z,16.23
2022-08-20T07:28:33.456Z,14.75
2022-08-20T07:31:06.536Z,15.32
2022-08-20T07:33:44.381Z,15.77
2022-08-20T07:36:13.308Z,15.27
2022-08-20T07:38:41.044Z,18.33
2022-08-20T07:41:10.994Z,17.23
2022-08-20T07:43:38.643Z,15.65
2022-08-20T07:46:06.759Z,16.42
2022-08-20T07:48:34.701Z,13.82
2022-08-20T07:51:05.180Z,15.98
2022-08-20T07:53:35.702Z,15.65
2022-08-20T07:56:05.296Z,14.32
2022-08-20T07:58:33.718Z,17.58
2022-08-20T08:01:01.319Z,15.63
2022-08-20T08:03:39.749Z,16.33
2022-08-20T08:06:29.230Z,15.88
2022-08-20T08:09:02.060Z,15.25
2022-08-20T08:11:31.938Z,12.23
2022-08-20T08:14:00.241Z,12.88
2022-08-20T08:16:31.812Z,14.25
2022-08-20T08:18:59.305Z,14.07
2022-08-20T08:21:28.298Z,14.38
2022-08-20T08:23:55.726Z,12.43
2022-08-20T08:26:23.218Z,13.98
2022-08-20T08:28:50.645Z,12.48
2022-08-20T08:31:18.565Z,13.30
2022-08-20T08:33:46.053Z,14.43
2022-08-20T08:36:15.049Z,13.15
2022-08-20T08:38:45.622Z,11.40
2022-08-20T08:41:18.701Z,12.48
2022-08-20T08:43:48.716Z,12.65
2022-08-20T08:46:18.189Z,11.45
2022-08-20T08:48:48.215Z,13.60
2022-08-20T08:51:21.086Z,12.95
2022-08-20T08:53:53.211Z,12.05
2022-08-20T08:56:23.534Z,11.48
2022-08-20T08:58:51.137Z,11.93
2022-08-20T09:01:55.233Z,11.80
2022-08-20T09:04:09.295Z,11.75
2022-08-20T09:06:37.073Z,13.20
2022-08-20T09:09:07.180Z,12.02
2022-08-20T09:11:46.471Z,11.10
2022-08-20T09:14:13.906Z,12.60
2022-08-20T09:16:52.200Z,12.60
2022-08-20T09:19:20.719Z,12.50
2022-08-20T09:21:48.115Z,13.85
2022-08-20T09:24:17.289Z,12.60
2022-08-20T09:26:44.801Z,12.88
2022-08-20T09:29:12.248Z,15.82
2022-08-20T09:31:39.856Z,11.35
2022-08-20T09:34:08.427Z,14.25
2022-08-20T09:36:35.846Z,14.82
2022-08-20T09:39:03.331Z,16.17
2022-08-20T09:41:33.796Z,16.65
2022-08-20T09:44:02.309Z,15.63
2022-08-20T09:46:29.778Z,14.77
2022-08-20T09:48:57.270Z,18.52
2022-08-20T09:51:24.816Z,17.77
2022-08-20T09:53:52.220Z,15.60
2022-08-20T09:56:19.672Z,18.65
2022-08-20T09:58:50.638Z,16.60
2022-08-20T10:01:20.618Z,15.43
2022-08-20T10:03:49.463Z,16.52
2022-08-20T10:06:17.904Z,21.23
2022-08-20T10:08:45.407Z,16.70
2022-08-20T10:11:12.899Z,13.90
2022-08-20T10:13:40.555Z,15.50
2022-08-20T10:16:09.429Z,17.33
2022-08-20T10:18:37.194Z,14.23
2022-08-20T10:21:09.640Z,16.65
2022-08-20T10:23:37.150Z,13.32
2022-08-20T10:26:04.627Z,14.55
2022-08-20T10:28:32.041Z,13.63
2022-08-20T10:30:59.501Z,15.68
2022-08-20T10:33:28.448Z,15.05
2022-08-20T10:35:59.898Z,12.48
2022-08-20T10:38:27.662Z,13.70
2022-08-20T10:40:55.065Z,13.50
2022-08-20T10:43:22.512Z,13.60
2022-08-20T10:45:51.760Z,14.63
2022-08-20T10:48:21.559Z,15.57
2022-08-20T10:50:50.721Z,16.63
2022-08-20T10:53:18.680Z,15.50
2022-08-20T10:55:46.132Z,16.48
2022-08-20T10:58:13.582Z,16.70
2022-08-20T11:00:41.769Z,17.77
2022-08-20T11:03:09.168Z,15.82
2022-08-20T11:05:36.625Z,14.75
2022-08-20T11:08:05.982Z,15.52
2022-08-20T11:10:34.910Z,17.30
2022-08-20T11:13:03.398Z,14.97
2022-08-20T11:15:31.125Z,18.65
2022-08-20T11:17:58.637Z,16.80
2022-08-20T11:20:27.067Z,15.55
2022-08-20T11:22:54.974Z,18.00
2022-08-20T11:25:25.764Z,21.63
2022-08-20T11:27:54.402Z,16.50
2022-08-20T11:30:24.514Z,20.80
2022-08-20T11:32:52.064Z,16.88
2022-08-20T11:35:41.709Z,20.65
2022-08-20T11:38:07.594Z,16.85
2022-08-20T11:40:36.917Z,18.80
2022-08-20T11:43:14.583Z,20.10
2022-08-20T11:45:43.259Z,16.83
2022-08-20T11:48:10.699Z,17.20
2022-08-20T11:50:38.107Z,17.13
2022-08-20T11:53:05.501Z,20.90
2022-08-20T11:55:37.393Z,14.63
2022-08-20T11:58:06.967Z,17.73
2022-08-20T12:00:34.744Z,15.85
2022-08-20T12:03:03.257Z,16.73
2022-08-20T12:05:31.010Z,15.63
2022-08-20T12:08:00.852Z,16.67
2022-08-20T12:10:28.411Z,14.27
2022-08-20T12:12:57.701Z,14.77
2022-08-20T12:15:25.678Z,15.30
2022-08-20T12:17:53.116Z,16.77
2022-08-20T12:20:20.553Z,14.20
2022-08-20T12:22:48.132Z,16.10
2022-08-20T12:25:15.794Z,14.88
2022-08-20T12:27:43.405Z,14.18
2022-08-20T12:30:14.760Z,13.25
2022-08-20T12:32:42.434Z,14.77
2022-08-20T12:35:11.344Z,14.10
2022-08-20T12:37:39.381Z,14.20
2022-08-20T12:40:09.951Z,15.00
2022-08-20T12:42:37.771Z,15.27
2022-08-20T12:45:06.550Z,17.50
2022-08-20T12:47:37.780Z,13.93
2022-08-20T12:50:08.662Z,14.18
2022-08-20T12:52:36.814Z,15.98
2022-08-20T12:55:06.436Z,14.98
2022-08-20T12:57:36.011Z,14.27
2022-08-20T13:00:07.871Z,15.30
2022-08-20T13:02:36.811Z,15.23
2022-08-20T13:05:05.486Z,17.90
2022-08-20T13:07:33.389Z,15.83
2022-08-20T13:10:01.301Z,17.02
2022-08-20T13:12:28.844Z,18.30
2022-08-20T13:14:56.271Z,16.40
2022-08-20T13:17:38.802Z,15.82
2022-08-20T13:20:11.582Z,16.60
2022-08-20T13:22:39.022Z,15.02
2022-08-20T13:25:07.492Z,15.80
2022-08-20T13:27:34.918Z,16.70
2022-08-20T13:30:02.341Z,15.30
2022-08-20T13:32:29.755Z,17.13
2022-08-20T13:34:57.235Z,16.08
2022-08-20T13:37:28.135Z,19.60
2022-08-20T13:39:56.564Z,17.63
2022-08-20T13:42:24.823Z,13.77
2022-08-20T13:44:52.237Z,15.32
2022-08-20T13:47:21.160Z,16.05
2022-08-20T13:49:49.655Z,17.40
2022-08-20T13:52:17.136Z,17.83
2022-08-20T13:54:45.967Z,19.30
2022-08-20T13:57:16.045Z,15.13
2022-08-20T13:59:45.825Z,15.15
2022-08-20T14:04:40.665Z,16.33
2022-08-20T14:07:13.333Z,19.55
2022-08-20T14:09:41.539Z,17.65
2022-08-20T14:12:11.566Z,15.18
2022-08-20T14:14:39.161Z,16.73
2022-08-20T14:17:17.853Z,17.25
2022-08-20T14:19:45.890Z,17.27
2022-08-20T14:22:13.587Z,14.70
2022-08-20T14:24:41.005Z,18.55
2022-08-20T14:27:10.048Z,16.00
2022-08-20T14:29:39.942Z,15.25
2022-08-20T14:32:07.837Z,15.52
2022-08-20T14:34:35.673Z,18.10
2022-08-20T14:37:17.050Z,16.45
2022-08-20T14:39:47.453Z,19.42
2022-08-20T14:42:17.160Z,15.70
2022-08-20T14:44:45.173Z,14.88
2022-08-20T14:47:17.209Z,15.82
2022-08-20T14:49:46.015Z,15.70
2022-08-20T14:52:14.844Z,17.50
2022-08-20T14:54:42.361Z,13.70
2022-08-20T14:57:13.159Z,16.77
2022-08-20T14:59:43.052Z,16.88
2022-08-20T15:02:12.795Z,16.73
2022-08-20T15:04:41.148Z,18.58
2022-08-20T15:07:16.439Z,15.15
2022-08-20T15:09:43.859Z,17.80
2022-08-20T15:12:11.348Z,17.25
2022-08-20T15:14:39.192Z,14.95
2022-08-20T15:17:10.446Z,15.60
2022-08-20T15:19:38.035Z,15.85
2022-08-20T15:22:05.601Z,18.05
2022-08-20T15:24:33.048Z,14.60
2022-08-20T15:27:10.944Z,14.68
2022-08-20T15:29:38.926Z,13.88
2022-08-20T15:32:08.151Z,14.80
2022-08-20T15:34:35.710Z,14.93
2022-08-20T15:37:08.297Z,14.30
2022-08-20T15:39:35.861Z,15.60
2022-08-20T15:42:03.971Z,14.48
2022-08-20T15:44:31.390Z,15.38
2022-08-20T15:47:20.018Z,14.13
2022-08-20T15:49:49.483Z,14.85
2022-08-20T15:52:17.458Z,13.65
2022-08-20T15:54:45.817Z,13.80
2022-08-20T15:57:19.342Z,16.98
2022-08-20T16:00:04.770Z,14.68
2022-08-20T16:03:12.234Z,15.45
2022-08-20T16:05:48.270Z,16.45
2022-08-20T16:08:34.776Z,16.30
2022-08-20T16:11:12.429Z,13.48
2022-08-20T16:13:45.726Z,15.52
2022-08-20T16:16:18.242Z,12.15
2022-08-20T16:18:50.769Z,13.30
2022-08-20T16:21:26.731Z,12.85
2022-08-20T16:23:54.247Z,11.63
2022-08-20T16:26:34.553Z,13.95
2022-08-20T16:29:11.239Z,12.73
2022-08-20T16:31:47.120Z,14.60
2022-08-20T16:34:32.977Z,14.35
2022-08-20T16:37:06.383Z,17.20
2022-08-20T16:39:52.690Z,14.15
2022-08-20T16:42:24.649Z,15.60
2022-08-20T16:44:55.534Z,15.85
2022-08-20T16:47:28.218Z,17.33
2022-08-20T16:50:01.026Z,16.20
2022-08-20T16:52:28.670Z,15.45
2022-08-20T16:54:56.364Z,18.80
2022-08-20T16:57:26.462Z,19.67
2022-08-20T17:00:08.899Z,16.80
2022-08-20T17:02:36.827Z,17.55
2022-08-20T17:05:06.740Z,17.40
2022-08-20T17:07:46.110Z,15.68
2022-08-20T17:10:19.219Z,17.27
2022-08-20T17:12:51.362Z,17.83
2022-08-20T17:15:24.036Z,17.50
2022-08-20T17:17:51.539Z,17.23
2022-08-20T17:20:20.816Z,17.05
2022-08-20T17:22:52.484Z,16.70
2022-08-20T17:25:28.884Z,17.63
2022-08-20T17:27:58.648Z,15.63
2022-08-20T17:30:34.840Z,17.38
2022-08-20T17:33:04.924Z,18.85
2022-08-20T17:35:40.412Z,17.02
2022-08-20T17:38:28.602Z,18.38
2022-08-20T17:41:00.075Z,15.85
2022-08-20T17:43:29.267Z,19.38
2022-08-20T17:46:00.973Z,18.73
2022-08-20T17:48:33.134Z,16.90
2022-08-20T17:51:12.232Z,19.95
2022-08-20T17:53:46.671Z,19.05
2022-08-20T17:56:18.546Z,19.90
2022-08-20T17:58:54.062Z,19.88
2022-08-20T18:01:23.728Z,18.15
2022-08-20T18:03:52.924Z,16.77
2022-08-20T18:06:30.633Z,15.80
2022-08-20T18:09:03.745Z,17.52
2022-08-20T18:11:40.487Z,19.00
2022-08-20T18:14:23.914Z,17.15
2022-08-20T18:17:06.670Z,18.05
2022-08-20T18:20:02.840Z,19.60
2022-08-20T18:22:34.061Z,19.25
2022-08-20T18:25:06.671Z,18.77
2022-08-20T18:27:42.550Z,18.10
2022-08-20T18:30:17.935Z,17.77
2022-08-20T18:32:46.415Z,16.98
2022-08-20T18:35:32.453Z,19.05
2022-08-20T18:38:12.197Z,21.13
2022-08-20T18:40:39.872Z,16.52
2022-08-20T18:43:13.234Z,20.65
2022-08-20T18:45:41.548Z,16.52
2022-08-20T18:48:21.123Z,19.92
2022-08-20T18:50:51.593Z,18.95
2022-08-20T18:53:29.178Z,20.58
2022-08-20T18:56:04.615Z,19.00
2022-08-20T18:58:34.519Z,19.08
2022-08-20T19:01:07.993Z,18.08
2022-08-20T19:03:41.728Z,19.45
2022-08-20T19:06:21.111Z,17.13
2022-08-20T19:08:56.810Z,18.15
2022-08-20T19:11:53.366Z,18.90
2022-08-20T19:14:48.962Z,17.02
2022-08-20T19:17:20.444Z,18.05
2022-08-20T19:19:58.921Z,16.75
2022-08-20T19:22:26.524Z,18.25
2022-08-20T19:24:56.809Z,19.50
2022-08-20T19:27:24.963Z,19.45
2022-08-20T19:29:56.642Z,18.55
2022-08-20T19:32:27.277Z,20.80
2022-08-20T19:34:57.070Z,16.05
2022-08-20T19:37:39.947Z,18.35
2022-08-20T19:40:28.147Z,21.08
2022-08-20T19:42:58.457Z,18.38
2022-08-20T19:45:30.001Z,18.27
2022-08-20T19:48:11.913Z,17.85
2022-08-20T19:50:46.677Z,19.63
2022-08-20T19:53:23.744Z,18.48
2022-08-20T19:56:01.776Z,17.40
2022-08-20T19:58:30.977Z,18.13
2022-08-20T20:01:00.957Z,19.60
2022-08-20T20:03:30.789Z,20.15
2022-08-20T20:06:02.113Z,16.67
2022-08-20T20:08:37.425Z,18.35
2022-08-20T20:11:06.550Z,18.90
2022-08-20T20:13:39.583Z,17.05
2022-08-20T20:16:07.953Z,20.88
2022-08-20T20:18:40.449Z,18.15
2022-08-20T20:21:14.750Z,18.35
2022-08-20T20:23:50.537Z,17.42
2022-08-20T20:26:19.763Z,17.75
2022-08-20T20:28:49.914Z,16.30
2022-08-20T20:31:23.541Z,15.40
2022-08-20T20:33:54.041Z,16.55
2022-08-20T20:36:33.591Z,18.25
2022-08-20T20:39:03.634Z,15.00
2022-08-20T20:41:34.995Z,15.23
2022-08-20T20:44:04.895Z,15.77
2022-08-20T20:46:34.902Z,15.90
2022-08-20T20:49:15.796Z,15.65
2022-08-20T20:51:53.676Z,15.20
2022-08-20T20:54:26.998Z,13.35
2022-08-20T20:57:04.619Z,15.57
2022-08-20T20:59:34.678Z,14.23
2022-08-20T21:02:02.299Z,15.02
2022-08-20T21:04:29.858Z,17.02
2022-08-20T21:06:59.179Z,14.85
2022-08-20T21:09:26.625Z,13.60
2022-08-20T21:11:54.071Z,14.13
2022-08-20T21:14:22.896Z,13.88
2022-08-20T21:16:50.344Z,15.23
2022-08-20T21:19:18.121Z,15.20
2022-08-20T21:21:45.595Z,15.55
2022-08-20T21:24:13.211Z,13.68
2022-08-20T21:26:41.166Z,15.90
2022-08-20T21:29:11.371Z,12.90
2022-08-20T21:31:43.692Z,13.20
2022-08-20T21:34:12.878Z,15.23
2022-08-20T21:36:40.786Z,15.73
2022-08-20T21:39:08.676Z,15.00
2022-08-20T21:41:36.707Z,13.57
2022-08-20T21:44:09.527Z,14.02
2022-08-20T21:46:36.984Z,15.30
2022-08-20T21:49:06.616Z,13.50
2022-08-20T21:54:01.058Z,15.25
2022-08-20T21:56:28.970Z,15.60
2022-08-20T21:59:00.172Z,15.75
2022-08-20T22:01:28.012Z,13.40
2022-08-20T22:03:55.482Z,14.57
2022-08-20T22:06:24.769Z,16.25
2022-08-20T22:08:52.273Z,13.93
2022-08-20T22:11:19.696Z,15.55
2022-08-20T22:13:47.207Z,14.48
2022-08-20T22:16:17.596Z,14.25
2022-08-20T22:18:45.847Z,14.73
2022-08-20T22:21:16.595Z,14.68
2022-08-20T22:23:45.541Z,17.23
2022-08-20T22:26:15.773Z,15.60
2022-08-20T22:28:43.737Z,15.68
2022-08-20T22:31:11.490Z,15.68
2022-08-20T22:33:39.339Z,14.65
2022-08-20T22:36:10.996Z,13.90
2022-08-20T22:38:38.443Z,14.13
2022-08-20T22:41:09.722Z,14.50
2022-08-20T22:43:46.305Z,15.43
2022-08-20T22:46:26.814Z,16.35
2022-08-20T22:48:54.830Z,17.10
2022-08-20T22:51:26.130Z,14.73
2022-08-20T22:53:53.787Z,15.73
2022-08-20T22:56:22.963Z,14.65
2022-08-20T22:58:50.494Z,15.02
2022-08-20T23:01:18.157Z,14.75
2022-08-20T23:03:46.333Z,14.95
2022-08-20T23:06:14.086Z,14.07
2022-08-20T23:08:42.072Z,14.20
2022-08-20T23:11:09.813Z,14.82
2022-08-20T23:13:38.659Z,15.55
2022-08-20T23:16:07.369Z,14.97
2022-08-20T23:18:35.089Z,14.90
2022-08-20T23:21:02.561Z,15.02
2022-08-20T23:23:30.936Z,14.32
2022-08-20T23:25:58.666Z,14.55
2022-08-20T23:28:26.464Z,12.73
2022-08-20T23:30:55.346Z,14.13
2022-08-20T23:33:22.933Z,14.30
2022-08-20T23:35:50.667Z,14.23
2022-08-20T23:38:18.124Z,13.63
2022-08-20T23:40:45.581Z,14.40
2022-08-20T23:43:13.035Z,13.82
2022-08-20T23:45:40.807Z,12.77
2022-08-20T23:48:09.910Z,13.60
2022-08-20T23:50:37.793Z,13.00
2022-08-20T23:53:05.735Z,13.18
2022-08-20T23:55:33.165Z,12.32
2022-08-20T23:58:00.675Z,13.80
